createdAt,value
2022-09-23T00:01:41.362Z,85.22
2022-09-23T00:04:17.662Z,85.26
2022-09-23T00:06:54.202Z,85.22
2022-09-23T00:09:30.458Z,85.30
2022-09-23T00:12:09.147Z,85.35
2022-09-23T00:14:46.062Z,85.41
2022-09-23T00:17:23.656Z,85.40
2022-09-23T00:20:00.542Z,85.46
2022-09-23T00:22:36.744Z,85.49
2022-09-23T00:25:15.096Z,85.58
2022-09-23T00:27:51.361Z,85.68
2022-09-23T00:30:27.899Z,85.84
2022-09-23T00:33:04.194Z,85.93
2022-09-23T00:35:40.725Z,86.02
2022-09-23T00:38:17.498Z,86.06
2022-09-23T00:40:58.478Z,86.08
2022-09-23T00:43:50.150Z,86.10
2022-09-23T00:46:34.300Z,86.16
2022-09-23T00:49:19.004Z,86.29
2022-09-23T00:52:04.639Z,86.45
2022-09-23T00:54:41.243Z,86.59
2022-09-23T00:57:21.105Z,86.60
2022-09-23T00:59:58.097Z,86.67
2022-09-23T01:02:34.516Z,86.78
2022-09-23T01:05:12.826Z,86.75
2022-09-23T01:07:51.000Z,86.69
2022-09-23T01:10:34.711Z,86.61
2022-09-23T01:13:25.777Z,86.60
2022-09-23T01:16:16.231Z,86.69
2022-09-23T01:19:05.515Z,86.70
2022-09-23T01:21:54.363Z,86.75
2022-09-23T01:24:49.217Z,86.89
2022-09-23T01:27:59.115Z,86.90
2022-09-23T01:30:57.580Z,86.93
2022-09-23T01:33:51.247Z,87.00
2022-09-23T01:36:35.949Z,87.00
2022-09-23T01:39:23.623Z,87.10
2022-09-23T01:42:17.018Z,87.07
2022-09-23T01:45:01.404Z,87.03
2022-09-23T01:47:43.964Z,86.98
2022-09-23T01:50:44.772Z,86.94
2022-09-23T01:53:30.107Z,86.90
2022-09-23T01:56:16.337Z,86.92
2022-09-23T01:59:02.632Z,86.95
2022-09-23T02:01:45.835Z,86.97
2022-09-23T02:04:31.515Z,87.01
2022-09-23T02:07:15.727Z,87.09
2022-09-23T02:09:59.070Z,87.20
2022-09-23T02:12:40.048Z,87.32
2022-09-23T02:15:24.070Z,87.43
2022-09-23T02:18:12.761Z,87.49
2022-09-23T02:20:51.425Z,87.50
2022-09-23T02:23:37.111Z,87.50
2022-09-23T02:26:24.095Z,87.52
2022-09-23T02:29:12.693Z,87.58
2022-09-23T02:31:59.190Z,87.61
2022-09-23T02:34:51.941Z,87.65
2022-09-23T02:37:43.588Z,87.70
2022-09-23T02:40:32.005Z,87.74
2022-09-23T02:43:21.289Z,87.78
2022-09-23T02:45:57.561Z,87.76
2022-09-23T02:48:42.271Z,87.70
2022-09-23T02:51:19.322Z,87.64
2022-09-23T02:53:57.341Z,87.59
2022-09-23T02:56:34.149Z,87.60
2022-09-23T02:59:11.866Z,87.52
2022-09-23T03:02:14.269Z,87.51
2022-09-23T03:05:03.937Z,87.52
2022-09-23T03:07:54.203Z,87.50
2022-09-23T03:10:43.995Z,87.52
2022-09-23T03:13:35.141Z,87.49
2022-09-23T03:16:24.275Z,87.41
2022-09-23T03:19:19.054Z,87.38
2022-09-23T03:22:05.503Z,87.45
2022-09-23T03:24:48.837Z,87.57
2022-09-23T03:27:33.748Z,87.70
2022-09-23T03:30:11.348Z,87.72
2022-09-23T03:32:51.238Z,87.77
2022-09-23T03:35:32.674Z,87.80
2022-09-23T03:38:17.453Z,87.81
2022-09-23T03:40:57.150Z,87.80
2022-09-23T03:43:38.726Z,87.77
2022-09-23T03:46:18.533Z,87.79
2022-09-23T03:48:56.685Z,87.80
2022-09-23T03:51:32.882Z,87.80
2022-09-23T03:54:10.047Z,87.80
2022-09-23T03:56:47.837Z,87.80
2022-09-23T03:59:23.932Z,87.79
2022-09-23T04:02:00.845Z,87.77
2022-09-23T04:04:40.225Z,87.71
2022-09-23T04:07:17.019Z,87.69
2022-09-23T04:09:53.175Z,87.69
2022-09-23T04:12:29.583Z,87.65
2022-09-23T04:15:06.786Z,87.61
2022-09-23T04:17:42.946Z,87.58
2022-09-23T04:20:19.554Z,87.58
2022-09-23T04:22:55.707Z,87.52
2022-09-23T04:25:32.321Z,87.58
2022-09-23T04:28:08.849Z,87.59
2022-09-23T04:30:47.392Z,87.51
2022-09-23T04:33:23.845Z,87.53
2022-09-23T04:36:00.251Z,87.50
2022-09-23T04:38:36.634Z,87.49
2022-09-23T04:41:16.360Z,87.50
2022-09-23T04:43:52.539Z,87.55
2022-09-23T04:46:28.969Z,87.67
2022-09-23T04:49:05.163Z,87.72
2022-09-23T04:51:43.774Z,87.73
2022-09-23T04:54:20.209Z,87.70
2022-09-23T04:56:57.180Z,87.70
2022-09-23T04:59:33.331Z,87.64
2022-09-23T05:02:10.886Z,87.62
2022-09-23T05:04:47.192Z,87.66
2022-09-23T05:07:23.455Z,87.70
2022-09-23T05:09:59.704Z,87.63
2022-09-23T05:12:35.977Z,87.60
2022-09-23T05:15:16.291Z,87.59
2022-09-23T05:17:52.705Z,87.50
2022-09-23T05:20:28.848Z,87.50
2022-09-23T05:23:05.294Z,87.50
2022-09-23T05:25:42.683Z,87.50
2022-09-23T05:28:20.314Z,87.45
2022-09-23T05:31:03.000Z,87.39
2022-09-23T05:33:40.139Z,87.32
2022-09-23T05:36:17.942Z,87.28
2022-09-23T05:38:56.687Z,87.20
2022-09-23T05:41:34.189Z,87.09
2022-09-23T05:44:10.890Z,86.95
2022-09-23T05:46:47.098Z,86.84
2022-09-23T05:49:37.669Z,86.66
2022-09-23T05:52:19.409Z,86.52
2022-09-23T05:54:56.013Z,86.34
2022-09-23T05:57:32.897Z,86.17
2022-09-23T06:00:13.640Z,86.02
2022-09-23T06:02:51.613Z,85.76
2022-09-23T06:05:28.841Z,85.48
2022-09-23T06:08:05.800Z,85.35
2022-09-23T06:10:47.148Z,85.02
2022-09-23T06:13:26.220Z,84.78
2022-09-23T06:16:05.471Z,84.74
2022-09-23T06:18:44.178Z,84.60
2022-09-23T06:21:21.743Z,84.45
2022-09-23T06:24:00.366Z,84.08
2022-09-23T06:26:37.719Z,83.84
2022-09-23T06:29:16.480Z,83.04
2022-09-23T06:31:54.810Z,82.42
2022-09-23T06:34:33.537Z,81.66
2022-09-23T06:37:19.001Z,81.17
2022-09-23T06:39:56.594Z,80.69
2022-09-23T06:42:32.991Z,80.59
2022-09-23T06:45:15.671Z,80.04
2022-09-23T06:47:56.192Z,79.72
2022-09-23T06:50:32.899Z,79.12
2022-09-23T06:53:09.023Z,78.43
2022-09-23T06:55:45.605Z,78.42
2022-09-23T06:58:22.326Z,77.96
2022-09-23T07:01:03.942Z,77.27
2022-09-23T07:03:40.877Z,76.87
2022-09-23T07:06:17.846Z,76.11
2022-09-23T07:08:54.053Z,75.00
2022-09-23T07:11:30.590Z,74.43
2022-09-23T07:14:07.942Z,74.10
2022-09-23T07:16:44.111Z,72.67
2022-09-23T07:19:20.401Z,73.09
2022-09-23T07:21:57.251Z,72.19
2022-09-23T07:24:34.463Z,72.11
2022-09-23T07:27:10.716Z,72.09
2022-09-23T07:29:48.995Z,71.70
2022-09-23T07:32:26.971Z,70.67
2022-09-23T07:35:03.918Z,69.22
2022-09-23T07:37:40.347Z,68.76
2022-09-23T07:40:16.923Z,66.88
2022-09-23T07:42:53.479Z,65.54
2022-09-23T07:45:31.960Z,65.51
2022-09-23T07:48:08.992Z,64.72
2022-09-23T07:50:46.285Z,63.87
2022-09-23T07:53:22.527Z,62.46
2022-09-23T07:56:04.593Z,61.78
2022-09-23T07:58:41.140Z,60.56
2022-09-23T08:01:17.514Z,60.89
2022-09-23T08:03:53.972Z,59.46
2022-09-23T08:06:30.632Z,59.50
2022-09-23T08:09:06.968Z,59.32
2022-09-23T08:11:43.439Z,59.77
2022-09-23T08:14:22.411Z,60.23
2022-09-23T08:16:58.814Z,60.26
2022-09-23T08:19:35.363Z,60.82
2022-09-23T08:22:12.530Z,60.37
2022-09-23T08:24:48.901Z,58.61
2022-09-23T08:27:25.154Z,59.56
2022-09-23T08:30:02.074Z,59.41
2022-09-23T08:32:39.098Z,60.01
2022-09-23T08:35:17.093Z,60.82
2022-09-23T08:37:54.160Z,61.37
2022-09-23T08:40:31.416Z,62.24
2022-09-23T08:43:16.812Z,62.75
2022-09-23T08:45:56.744Z,63.27
2022-09-23T08:48:39.546Z,63.87
2022-09-23T08:51:27.292Z,64.70
2022-09-23T08:54:04.853Z,65.39
2022-09-23T08:56:45.335Z,65.70
2022-09-23T08:59:37.324Z,63.74
2022-09-23T09:02:22.845Z,63.47
2022-09-23T09:05:10.067Z,60.69
2022-09-23T09:07:47.530Z,60.43
2022-09-23T09:10:29.780Z,61.03
2022-09-23T09:13:20.913Z,60.77
2022-09-23T09:16:18.828Z,60.46
2022-09-23T09:19:07.949Z,59.83
2022-09-23T09:21:48.279Z,59.68
2022-09-23T09:24:34.873Z,59.59
2022-09-23T09:27:17.764Z,59.67
2022-09-23T09:29:58.979Z,60.12
2022-09-23T09:32:48.644Z,57.72
2022-09-23T09:35:38.752Z,56.68
2022-09-23T09:38:15.491Z,58.00
2022-09-23T09:40:52.644Z,59.82
2022-09-23T09:43:32.161Z,61.16
2022-09-23T09:46:29.526Z,61.90
2022-09-23T09:49:15.853Z,60.18
2022-09-23T09:52:12.546Z,59.31
2022-09-23T09:54:49.496Z,59.83
2022-09-23T09:57:38.196Z,60.01
2022-09-23T10:00:44.190Z,61.26
2022-09-23T10:03:46.018Z,58.61
2022-09-23T10:06:29.591Z,57.10
2022-09-23T10:09:38.267Z,56.00
2022-09-23T10:12:22.769Z,55.81
2022-09-23T10:15:02.256Z,54.57
2022-09-23T10:17:40.157Z,56.89
2022-09-23T10:20:20.793Z,56.23
2022-09-23T10:22:57.598Z,56.36
2022-09-23T10:25:36.498Z,53.93
2022-09-23T10:28:43.198Z,53.98
2022-09-23T10:31:26.356Z,53.67
2022-09-23T10:34:20.789Z,53.49
2022-09-23T10:37:14.963Z,53.54
2022-09-23T10:40:09.078Z,52.49
2022-09-23T10:43:34.057Z,52.72
2022-09-23T10:46:43.926Z,50.22
2022-09-23T10:50:04.894Z,51.60
2022-09-23T10:53:06.144Z,51.28
2022-09-23T10:56:05.922Z,52.16
2022-09-23T10:59:14.344Z,53.85
2022-09-23T11:02:06.379Z,54.37
2022-09-23T11:05:40.090Z,53.21
2022-09-23T11:08:51.545Z,52.73
2022-09-23T11:11:46.343Z,53.19
2022-09-23T11:14:52.197Z,53.18
2022-09-23T11:18:11.433Z,53.49
2022-09-23T11:21:02.597Z,54.18
2022-09-23T11:24:23.837Z,52.57
2022-09-23T11:27:16.237Z,52.67
2022-09-23T11:30:11.352Z,54.22
2022-09-23T11:33:18.702Z,52.91
2022-09-23T11:36:03.215Z,52.68
2022-09-23T11:38:45.441Z,52.34
2022-09-23T11:41:29.229Z,52.33
2022-09-23T11:44:17.154Z,51.55
2022-09-23T11:47:03.660Z,48.80
2022-09-23T11:49:49.688Z,48.06
2022-09-23T11:52:35.131Z,49.74
2022-09-23T11:55:23.325Z,49.91
2022-09-23T11:58:17.173Z,49.19
2022-09-23T12:01:09.138Z,50.29
2022-09-23T12:03:59.143Z,50.57
2022-09-23T12:06:42.879Z,50.27
2022-09-23T12:09:56.822Z,51.79
2022-09-23T12:12:42.702Z,51.72
2022-09-23T12:15:42.745Z,50.39
2022-09-23T12:19:04.638Z,51.20
2022-09-23T12:22:08.422Z,51.57
2022-09-23T12:25:08.385Z,50.94
2022-09-23T12:27:50.478Z,51.05
2022-09-23T12:30:31.231Z,50.94
2022-09-23T12:33:26.529Z,50.62
2022-09-23T12:36:13.047Z,50.63
2022-09-23T12:39:00.019Z,48.83
2022-09-23T12:41:40.986Z,48.37
2022-09-23T12:44:37.738Z,49.17
2022-09-23T12:47:43.531Z,48.88
2022-09-23T12:51:07.952Z,50.62
2022-09-23T12:54:24.490Z,50.74
2022-09-23T12:57:12.941Z,51.08
2022-09-23T13:00:26.919Z,49.25
2022-09-23T13:03:23.096Z,50.92
2022-09-23T13:06:25.723Z,49.58
2022-09-23T13:09:02.773Z,51.38
2022-09-23T13:11:43.881Z,51.96
2022-09-23T13:14:27.673Z,52.66
2022-09-23T13:17:04.925Z,53.29
2022-09-23T13:20:01.673Z,53.08
2022-09-23T13:23:25.309Z,53.43
2022-09-23T13:26:12.723Z,53.17
2022-09-23T13:29:03.775Z,52.88
2022-09-23T13:31:43.603Z,53.12
2022-09-23T13:34:25.801Z,53.24
2022-09-23T13:37:12.280Z,52.98
2022-09-23T13:39:48.896Z,52.10
2022-09-23T13:42:31.378Z,52.37
2022-09-23T13:45:15.514Z,52.01
2022-09-23T13:47:54.509Z,52.67
2022-09-23T13:50:35.197Z,52.77
2022-09-23T13:53:23.376Z,53.54
2022-09-23T13:56:15.896Z,52.85
2022-09-23T13:58:52.889Z,51.57
2022-09-23T14:01:36.991Z,51.36
2022-09-23T14:04:29.791Z,52.27
2022-09-23T14:07:08.098Z,52.01
2022-09-23T14:09:51.015Z,51.36
2022-09-23T14:12:27.580Z,51.20
2022-09-23T14:15:03.941Z,50.59
2022-09-23T14:17:41.600Z,51.27
2022-09-23T14:20:23.635Z,51.19
2022-09-23T14:23:16.288Z,51.55
2022-09-23T14:25:55.046Z,51.66
2022-09-23T14:28:32.374Z,51.05
2022-09-23T14:31:09.074Z,50.92
2022-09-23T14:33:47.076Z,50.73
2022-09-23T14:36:41.534Z,51.38
2022-09-23T14:39:18.868Z,52.28
2022-09-23T14:41:56.645Z,51.72
2022-09-23T14:44:35.749Z,51.83
2022-09-23T14:47:18.383Z,52.13
2022-09-23T14:50:09.770Z,51.68
2022-09-23T14:52:54.024Z,51.76
2022-09-23T14:55:32.714Z,52.53
2022-09-23T14:58:18.719Z,52.85
2022-09-23T15:01:01.144Z,52.90
2022-09-23T15:03:47.807Z,53.62
2022-09-23T15:06:26.035Z,53.95
2022-09-23T15:09:02.657Z,53.63
2022-09-23T15:11:40.849Z,53.63
2022-09-23T15:14:37.291Z,53.96
2022-09-23T15:17:32.757Z,53.87
2022-09-23T15:20:22.775Z,54.30
2022-09-23T15:23:01.252Z,54.62
2022-09-23T15:25:43.859Z,54.77
2022-09-23T15:28:29.820Z,54.23
2022-09-23T15:31:09.280Z,54.28
2022-09-23T15:33:47.726Z,55.57
2022-09-23T15:36:29.259Z,55.95
2022-09-23T15:39:13.487Z,56.99
2022-09-23T15:41:49.998Z,57.86
2022-09-23T15:44:29.940Z,57.52
2022-09-23T15:47:10.451Z,57.64
2022-09-23T15:49:49.343Z,58.30
2022-09-23T15:52:26.636Z,58.14
2022-09-23T15:55:02.818Z,59.27
2022-09-23T15:57:39.359Z,59.86
2022-09-23T16:00:18.727Z,59.13
2022-09-23T16:02:55.662Z,59.80
2022-09-23T16:05:36.187Z,62.99
2022-09-23T16:08:14.748Z,63.47
2022-09-23T16:10:51.499Z,64.18
2022-09-23T16:13:28.132Z,63.85
2022-09-23T16:16:05.307Z,63.79
2022-09-23T16:18:43.881Z,63.32
2022-09-23T16:21:25.533Z,63.10
2022-09-23T16:24:02.209Z,65.29
2022-09-23T16:26:43.350Z,65.67
2022-09-23T16:29:19.871Z,66.33
2022-09-23T16:31:56.139Z,67.11
2022-09-23T16:34:33.831Z,67.53
2022-09-23T16:37:15.914Z,67.85
2022-09-23T16:39:52.907Z,68.12
2022-09-23T16:42:29.345Z,68.94
2022-09-23T16:45:06.136Z,69.48
2022-09-23T16:47:48.919Z,69.83
2022-09-23T16:50:28.775Z,70.29
2022-09-23T16:53:05.002Z,70.31
2022-09-23T16:55:41.202Z,71.22
2022-09-23T16:58:17.422Z,72.12
2022-09-23T17:01:17.377Z,72.61
2022-09-23T17:03:53.974Z,72.30
2022-09-23T17:06:30.441Z,72.43
2022-09-23T17:09:07.381Z,73.34
2022-09-23T17:11:48.315Z,74.17
2022-09-23T17:14:25.581Z,74.43
2022-09-23T17:17:03.479Z,74.29
2022-09-23T17:19:41.503Z,75.20
2022-09-23T17:22:17.848Z,75.41
2022-09-23T17:24:53.956Z,75.71
2022-09-23T17:27:31.725Z,76.10
2022-09-23T17:30:10.349Z,76.51
2022-09-23T17:32:47.405Z,75.86
2022-09-23T17:35:23.828Z,75.76
2022-09-23T17:37:59.920Z,75.70
2022-09-23T17:40:40.721Z,75.97
2022-09-23T17:43:16.838Z,76.06
2022-09-23T17:45:54.556Z,76.24
2022-09-23T17:48:32.872Z,76.49
2022-09-23T17:51:14.949Z,76.77
2022-09-23T17:53:52.829Z,76.99
2022-09-23T17:56:31.403Z,77.07
2022-09-23T17:59:08.304Z,77.35
2022-09-23T18:01:44.606Z,77.45
2022-09-23T18:04:21.446Z,77.47
2022-09-23T18:06:57.872Z,77.56
2022-09-23T18:09:34.477Z,77.65
2022-09-23T18:12:11.077Z,78.08
2022-09-23T18:14:48.372Z,78.61
2022-09-23T18:17:25.285Z,79.03
2022-09-23T18:20:02.012Z,78.97
2022-09-23T18:22:38.419Z,79.09
2022-09-23T18:25:35.411Z,79.25
2022-09-23T18:28:12.946Z,79.37
2022-09-23T18:30:59.963Z,79.57
2022-09-23T18:33:36.585Z,79.63
2022-09-23T18:36:14.328Z,79.78
2022-09-23T18:38:52.600Z,79.79
2022-09-23T18:41:29.301Z,80.02
2022-09-23T18:44:06.871Z,80.30
2022-09-23T18:46:44.866Z,80.57
2022-09-23T18:49:39.091Z,80.70
2022-09-23T18:52:15.934Z,80.62
2022-09-23T18:54:55.080Z,80.84
2022-09-23T18:57:31.621Z,80.96
2022-09-23T19:00:10.416Z,81.03
2022-09-23T19:02:47.196Z,81.07
2022-09-23T19:05:23.622Z,81.10
2022-09-23T19:08:00.226Z,81.25
2022-09-23T19:10:36.839Z,81.44
2022-09-23T19:13:13.485Z,81.50
2022-09-23T19:15:50.915Z,81.56
2022-09-23T19:18:29.188Z,81.65
2022-09-23T19:21:07.201Z,81.87
2022-09-23T19:23:48.710Z,81.97
2022-09-23T19:26:31.281Z,82.29
2022-09-23T19:29:13.801Z,82.56
2022-09-23T19:31:51.175Z,82.79
2022-09-23T19:34:29.517Z,82.99
2022-09-23T19:37:06.142Z,83.65
2022-09-23T19:39:43.066Z,84.19
2022-09-23T19:42:19.964Z,84.14
2022-09-23T19:44:56.683Z,84.06
2022-09-23T19:47:34.398Z,83.98
2022-09-23T19:50:12.535Z,84.03
2022-09-23T19:52:50.727Z,83.96
2022-09-23T19:55:28.557Z,83.89
2022-09-23T19:58:05.897Z,83.88
2022-09-23T20:00:42.835Z,83.92
2022-09-23T20:03:19.766Z,83.93
2022-09-23T20:06:01.835Z,83.82
2022-09-23T20:08:41.464Z,83.74
2022-09-23T20:11:24.853Z,83.57
2022-09-23T20:14:06.574Z,83.52
2022-09-23T20:16:44.403Z,83.50
2022-09-23T20:19:20.742Z,83.48
2022-09-23T20:22:17.030Z,83.67
2022-09-23T20:24:53.607Z,83.67
2022-09-23T20:27:31.597Z,83.60
2022-09-23T20:30:10.414Z,83.50
2022-09-23T20:32:47.201Z,83.40
2022-09-23T20:35:23.759Z,83.40
2022-09-23T20:38:01.245Z,83.41
2022-09-23T20:40:39.160Z,83.30
2022-09-23T20:43:16.350Z,83.29
2022-09-23T20:45:57.716Z,83.22
2022-09-23T20:48:35.583Z,83.20
2022-09-23T20:51:12.477Z,83.10
2022-09-23T20:53:52.948Z,83.13
2022-09-23T20:56:29.947Z,83.22
2022-09-23T20:59:07.961Z,83.34
2022-09-23T21:01:44.381Z,83.46
2022-09-23T21:04:21.518Z,83.70
2022-09-23T21:06:59.490Z,83.96
2022-09-23T21:09:35.770Z,84.13
2022-09-23T21:12:12.123Z,84.19
2022-09-23T21:14:48.803Z,84.22
2022-09-23T21:17:25.148Z,84.31
2022-09-23T21:20:01.567Z,84.24
2022-09-23T21:22:38.212Z,84.13
2022-09-23T21:25:27.417Z,84.09
2022-09-23T21:28:06.602Z,84.09
2022-09-23T21:30:42.863Z,84.10
2022-09-23T21:33:19.146Z,84.04
2022-09-23T21:35:59.807Z,83.97
2022-09-23T21:38:38.901Z,83.89
2022-09-23T21:41:16.713Z,83.73
2022-09-23T21:43:53.177Z,83.64
2022-09-23T21:46:33.890Z,83.55
2022-09-23T21:49:10.536Z,83.57
2022-09-23T21:51:47.622Z,83.62
2022-09-23T21:54:24.302Z,83.57
2022-09-23T21:57:00.559Z,83.53
2022-09-23T21:59:36.796Z,83.48
2022-09-23T22:02:12.976Z,83.46
2022-09-23T22:04:49.170Z,83.45
2022-09-23T22:07:25.504Z,83.54
2022-09-23T22:10:01.910Z,83.74
2022-09-23T22:12:38.230Z,83.93
2022-09-23T22:15:18.097Z,84.20
2022-09-23T22:17:54.797Z,84.33
2022-09-23T22:20:33.787Z,84.36
2022-09-23T22:23:10.447Z,84.35
2022-09-23T22:25:46.750Z,84.42
2022-09-23T22:28:40.793Z,84.47
2022-09-23T22:31:35.043Z,84.42
2022-09-23T22:34:30.913Z,84.32
2022-09-23T22:37:08.038Z,84.46
2022-09-23T22:39:44.189Z,84.55
2022-09-23T22:42:22.435Z,84.60
2022-09-23T22:44:59.083Z,84.66
2022-09-23T22:47:37.901Z,84.70
2022-09-23T22:50:16.322Z,84.67
2022-09-23T22:52:53.549Z,84.73
2022-09-23T22:55:29.688Z,84.82
2022-09-23T22:58:27.710Z,84.84
2022-09-23T23:01:03.061Z,84.71
2022-09-23T23:03:40.558Z,84.74
2022-09-23T23:06:19.387Z,84.70
2022-09-23T23:08:58.658Z,84.70
2022-09-23T23:11:34.983Z,84.70
2022-09-23T23:14:11.632Z,84.78
2022-09-23T23:16:49.480Z,84.80
2022-09-23T23:19:26.262Z,84.88
2022-09-23T23:22:02.501Z,85.03
2022-09-23T23:24:38.982Z,85.28
2022-09-23T23:27:15.131Z,85.37
2022-09-23T23:29:51.315Z,85.48
2022-09-23T23:32:28.018Z,85.56
2022-09-23T23:35:04.637Z,85.70
2022-09-23T23:37:40.981Z,85.79
2022-09-23T23:40:23.040Z,85.80
2022-09-23T23:43:00.217Z,85.82
2022-09-23T23:45:36.649Z,85.88
2022-09-23T23:48:12.915Z,85.82
2022-09-23T23:50:57.104Z,85.90
2022-09-23T23:53:38.290Z,85.90
2022-09-23T23:56:17.574Z,85.88
2022-09-23T23:58:58.722Z,85.90
